Terminal Aerodrome Forecast
Issued by NWS

Home | Current Version | Previous Version | Text Only | Print | Product List | Glossary Off
Versions: 1 2 3 4 5 6 7 8 9 10 11 12 13 14 15 16 17

000
FTUS43 KBIS 270500
TAFJMS
TAF
KJMS 270538Z 2706/2806 VRB05KT P6SM SKC
     FM271500 17008KT P6SM SCT080
     FM272100 15010KT 3SM -SN BR BKN015 OVC025
     FM280200 18012KT 6SM -SN BR OVC010=

USA.gov is the U.S. government's official web portal to all federal, state and local government web resources and services.